createdAt,value
2022-11-29T00:01:43.750Z,23.83
2022-11-29T00:04:12.495Z,22.47
2022-11-29T00:06:41.187Z,23.47
2022-11-29T00:09:13.964Z,23.27
2022-11-29T00:12:00.989Z,23.67
2022-11-29T00:14:31.345Z,23.73
2022-11-29T00:17:02.437Z,24.47
2022-11-29T00:19:32.172Z,25.30
2022-11-29T00:22:01.121Z,25.00
2022-11-29T00:24:31.584Z,25.50
2022-11-29T00:27:01.272Z,24.80
2022-11-29T00:29:31.682Z,23.83
2022-11-29T00:32:00.510Z,25.97
2022-11-29T00:34:29.572Z,25.57
2022-11-29T00:36:57.975Z,25.67
2022-11-29T00:39:26.696Z,23.60
2022-11-29T00:41:55.135Z,25.73
2022-11-29T00:44:23.631Z,25.67
2022-11-29T00:46:53.365Z,26.23
2022-11-29T00:49:21.824Z,25.03
2022-11-29T00:51:50.315Z,25.47
2022-11-29T00:54:19.091Z,26.70
2022-11-29T00:56:47.693Z,27.37
2022-11-29T00:59:16.102Z,26.73
2022-11-29T01:01:44.632Z,26.77
2022-11-29T01:04:14.776Z,26.40
2022-11-29T01:06:43.165Z,27.60
2022-11-29T01:09:11.618Z,27.37
2022-11-29T01:11:40.053Z,28.20
2022-11-29T01:14:08.485Z,28.30
2022-11-29T01:16:36.932Z,26.53
2022-11-29T01:19:07.222Z,28.13
2022-11-29T01:21:37.000Z,28.60
2022-11-29T01:24:05.956Z,29.17
2022-11-29T01:26:35.887Z,29.13
2022-11-29T01:29:04.677Z,28.70
2022-11-29T01:31:36.443Z,28.97
2022-11-29T01:34:07.788Z,27.90
2022-11-29T01:36:37.571Z,29.13
2022-11-29T01:39:07.510Z,28.83
2022-11-29T01:41:38.618Z,28.43
2022-11-29T01:44:46.811Z,29.67
2022-11-29T01:47:15.392Z,28.70
2022-11-29T01:49:48.560Z,29.07
2022-11-29T01:52:23.559Z,28.37
2022-11-29T01:54:58.033Z,29.67
2022-11-29T01:57:27.499Z,29.90
2022-11-29T02:00:01.929Z,29.03
2022-11-29T02:02:46.334Z,29.73
2022-11-29T02:05:19.645Z,28.43
2022-11-29T02:07:55.582Z,31.03
2022-11-29T02:10:50.834Z,29.63
2022-11-29T02:13:33.708Z,30.70
2022-11-29T02:16:11.227Z,30.07
2022-11-29T02:18:56.435Z,30.13
2022-11-29T02:21:40.266Z,30.03
2022-11-29T02:24:53.317Z,30.87
2022-11-29T02:28:31.263Z,31.27
2022-11-29T02:31:48.642Z,29.97
2022-11-29T02:34:47.972Z,30.33
2022-11-29T02:38:12.263Z,30.47
2022-11-29T02:41:06.555Z,29.30
2022-11-29T02:44:19.292Z,29.33
2022-11-29T02:47:09.142Z,29.67
2022-11-29T02:50:14.802Z,29.67
2022-11-29T02:52:56.005Z,30.33
2022-11-29T02:55:34.710Z,30.30
2022-11-29T02:58:16.461Z,30.77
2022-11-29T03:00:59.073Z,29.77
2022-11-29T03:03:36.533Z,30.17
2022-11-29T03:06:19.709Z,30.20
2022-11-29T03:08:55.848Z,31.40
2022-11-29T03:11:35.609Z,29.87
2022-11-29T03:14:18.530Z,30.57
2022-11-29T03:17:00.886Z,31.47
2022-11-29T03:19:50.424Z,30.37
2022-11-29T03:22:36.879Z,30.13
2022-11-29T03:25:14.480Z,31.43
2022-11-29T03:27:51.430Z,29.63
2022-11-29T03:30:21.709Z,31.40
2022-11-29T03:33:02.280Z,31.03
2022-11-29T03:35:40.943Z,31.63
2022-11-29T03:38:25.745Z,31.90
2022-11-29T03:41:02.277Z,32.33
2022-11-29T03:43:43.715Z,32.93
2022-11-29T03:46:19.235Z,31.30
2022-11-29T03:48:55.209Z,31.63
2022-11-29T03:51:29.877Z,32.03
2022-11-29T03:54:08.940Z,34.17
2022-11-29T03:56:41.437Z,33.27
2022-11-29T03:59:30.405Z,33.63
2022-11-29T04:02:30.664Z,32.20
2022-11-29T04:05:29.834Z,32.00
2022-11-29T04:08:56.126Z,33.50
2022-11-29T04:12:09.685Z,31.80
2022-11-29T04:15:23.612Z,31.10
2022-11-29T04:18:40.805Z,32.13
2022-11-29T04:21:32.456Z,32.13
2022-11-29T04:24:40.325Z,32.50
2022-11-29T04:27:48.614Z,33.80
2022-11-29T04:30:22.695Z,34.40
2022-11-29T04:33:39.201Z,34.27
2022-11-29T04:36:49.962Z,32.83
2022-11-29T04:39:44.549Z,31.90
2022-11-29T04:42:44.493Z,34.00
2022-11-29T04:45:48.964Z,32.20
2022-11-29T04:48:41.574Z,33.93
2022-11-29T04:51:27.155Z,34.50
2022-11-29T04:54:08.714Z,34.10
2022-11-29T04:56:45.689Z,34.00
2022-11-29T04:59:25.923Z,33.20
2022-11-29T05:02:08.569Z,32.23
2022-11-29T05:04:51.613Z,34.20
2022-11-29T05:07:32.340Z,32.87
2022-11-29T05:10:14.965Z,34.17
2022-11-29T05:12:59.143Z,33.80
2022-11-29T05:16:15.734Z,31.67
2022-11-29T05:19:16.334Z,33.83
2022-11-29T05:22:00.142Z,34.13
2022-11-29T05:24:47.155Z,34.90
2022-11-29T05:27:28.371Z,33.97
2022-11-29T05:30:04.170Z,33.67
2022-11-29T05:32:45.650Z,34.67
2022-11-29T05:35:52.881Z,34.30
2022-11-29T05:38:46.029Z,32.93
2022-11-29T05:41:49.196Z,34.47
2022-11-29T05:44:28.663Z,33.27
2022-11-29T05:47:01.303Z,34.97
2022-11-29T05:49:42.370Z,33.63
2022-11-29T05:52:25.513Z,34.07
2022-11-29T05:55:20.368Z,36.67
2022-11-29T05:57:58.713Z,35.47
2022-11-29T06:00:33.864Z,36.20
2022-11-29T06:03:20.113Z,35.97
2022-11-29T06:05:58.353Z,35.73
2022-11-29T06:08:40.652Z,37.07
2022-11-29T06:11:18.989Z,36.03
2022-11-29T06:14:03.085Z,37.10
2022-11-29T06:17:03.575Z,34.83
2022-11-29T06:20:16.309Z,37.40
2022-11-29T06:23:19.021Z,36.13
2022-11-29T06:26:08.162Z,37.70
2022-11-29T06:28:53.536Z,34.63
2022-11-29T06:31:29.498Z,35.90
2022-11-29T06:34:10.115Z,35.57
2022-11-29T06:36:49.292Z,37.90
2022-11-29T06:39:19.927Z,37.43
2022-11-29T06:41:48.905Z,37.90
2022-11-29T06:44:17.918Z,36.77
2022-11-29T06:46:50.173Z,36.53
2022-11-29T06:49:28.423Z,35.70
2022-11-29T06:52:13.507Z,36.13
2022-11-29T06:55:13.428Z,36.83
2022-11-29T06:58:07.864Z,36.50
2022-11-29T07:00:49.688Z,37.93
2022-11-29T07:03:49.530Z,37.40
2022-11-29T07:06:25.929Z,35.97
2022-11-29T07:08:59.830Z,35.93
2022-11-29T07:11:30.685Z,38.30
2022-11-29T07:13:59.638Z,35.90
2022-11-29T07:16:37.935Z,35.83
2022-11-29T07:19:21.422Z,35.53
2022-11-29T07:22:02.665Z,34.77
2022-11-29T07:24:49.708Z,36.13
2022-11-29T07:27:28.751Z,36.13
2022-11-29T07:30:13.668Z,37.37
2022-11-29T07:33:00.670Z,34.90
2022-11-29T07:35:40.875Z,36.97
2022-11-29T07:38:21.417Z,37.10
2022-11-29T07:40:59.414Z,36.93
2022-11-29T07:43:46.263Z,36.13
2022-11-29T07:46:14.620Z,36.53
2022-11-29T07:48:43.024Z,36.13
2022-11-29T07:51:12.305Z,38.13
2022-11-29T07:53:44.953Z,36.97
2022-11-29T07:56:14.741Z,37.37
2022-11-29T07:58:44.723Z,37.97
2022-11-29T08:01:13.636Z,36.93
2022-11-29T08:03:42.859Z,37.27
2022-11-29T08:06:11.258Z,37.50
2022-11-29T08:08:44.018Z,36.30
2022-11-29T08:11:14.332Z,36.93
2022-11-29T08:13:44.029Z,37.17
2022-11-29T08:16:18.471Z,38.07
2022-11-29T08:18:46.820Z,36.97
2022-11-29T08:21:20.830Z,38.03
2022-11-29T08:23:50.626Z,37.67
2022-11-29T08:26:20.853Z,36.83
2022-11-29T08:28:53.455Z,36.27
2022-11-29T08:31:22.367Z,36.03
2022-11-29T08:33:50.801Z,35.03
2022-11-29T08:36:21.496Z,36.73
2022-11-29T08:38:52.843Z,36.70
2022-11-29T08:41:25.607Z,36.97
2022-11-29T08:43:55.256Z,37.93
2022-11-29T08:46:43.767Z,35.80
2022-11-29T08:49:12.024Z,35.93
2022-11-29T08:51:40.336Z,37.07
2022-11-29T08:54:08.101Z,36.10
2022-11-29T08:59:27.671Z,35.00
2022-11-29T09:01:56.076Z,35.23
2022-11-29T09:04:24.424Z,35.57
2022-11-29T09:06:52.785Z,37.03
2022-11-29T09:09:21.031Z,36.33
2022-11-29T09:11:49.784Z,34.60
2022-11-29T09:14:19.952Z,36.63
2022-11-29T09:16:49.720Z,37.93
2022-11-29T09:19:18.263Z,36.77
2022-11-29T09:21:46.544Z,38.13
2022-11-29T09:24:15.166Z,36.37
2022-11-29T09:26:46.879Z,36.53
2022-11-29T09:29:17.395Z,36.90
2022-11-29T09:31:45.878Z,36.27
2022-11-29T09:34:16.750Z,37.03
2022-11-29T09:36:45.780Z,37.23
2022-11-29T09:39:15.564Z,37.17
2022-11-29T09:42:09.616Z,37.23
2022-11-29T09:44:57.247Z,35.60
2022-11-29T09:47:57.991Z,37.13
2022-11-29T09:50:34.930Z,37.47
2022-11-29T09:53:29.335Z,37.70
2022-11-29T09:56:13.144Z,36.80
2022-11-29T09:58:49.471Z,35.37
2022-11-29T10:01:25.826Z,35.83
2022-11-29T10:03:58.391Z,38.73
2022-11-29T10:06:32.693Z,38.03
2022-11-29T10:09:05.407Z,38.13
2022-11-29T10:11:43.324Z,34.33
2022-11-29T10:14:20.248Z,37.47
2022-11-29T10:16:56.003Z,35.57
2022-11-29T10:19:33.289Z,36.53
2022-11-29T10:22:08.549Z,34.67
2022-11-29T10:24:39.608Z,35.97
2022-11-29T10:27:18.273Z,35.90
2022-11-29T10:29:50.133Z,34.53
2022-11-29T10:32:21.580Z,35.67
2022-11-29T10:34:51.239Z,36.73
2022-11-29T10:37:22.991Z,36.93
2022-11-29T10:39:58.564Z,35.83
2022-11-29T10:42:47.704Z,35.63
2022-11-29T10:45:25.208Z,36.90
2022-11-29T10:47:57.356Z,36.33
2022-11-29T10:50:29.059Z,36.83
2022-11-29T10:53:05.902Z,36.60
2022-11-29T10:55:42.783Z,37.50
2022-11-29T10:58:16.051Z,37.37
2022-11-29T11:00:54.701Z,37.73
2022-11-29T11:03:39.278Z,38.63
2022-11-29T11:06:14.676Z,38.97
2022-11-29T11:08:48.477Z,37.50
2022-11-29T11:11:29.074Z,37.87
2022-11-29T11:14:03.127Z,37.13
2022-11-29T11:16:37.146Z,37.00
2022-11-29T11:19:14.585Z,38.23
2022-11-29T11:21:43.012Z,38.03
2022-11-29T11:24:25.784Z,38.50
2022-11-29T11:26:54.521Z,38.60
2022-11-29T11:29:37.599Z,39.87
2022-11-29T11:32:15.964Z,38.03
2022-11-29T11:34:53.476Z,38.80
2022-11-29T11:37:28.821Z,38.53
2022-11-29T11:40:01.243Z,39.00
2022-11-29T11:42:37.927Z,40.63
2022-11-29T11:45:27.517Z,38.07
2022-11-29T11:47:59.712Z,37.17
2022-11-29T11:50:35.169Z,39.27
2022-11-29T11:53:08.475Z,40.47
2022-11-29T11:55:43.969Z,39.93
2022-11-29T11:58:22.790Z,39.87
2022-11-29T12:01:04.072Z,40.20
2022-11-29T12:03:49.207Z,42.23
2022-11-29T12:06:35.196Z,39.70
2022-11-29T12:09:16.460Z,40.17
2022-11-29T12:11:55.183Z,38.57
2022-11-29T12:14:36.580Z,39.40
2022-11-29T12:17:20.375Z,40.10
2022-11-29T12:20:04.283Z,39.50
2022-11-29T12:22:47.915Z,41.50
2022-11-29T12:25:23.626Z,41.43
2022-11-29T12:27:53.583Z,40.10
2022-11-29T12:30:22.424Z,42.80
2022-11-29T12:33:24.216Z,40.33
2022-11-29T12:36:09.715Z,41.43
2022-11-29T12:39:01.061Z,41.97
2022-11-29T12:41:47.188Z,41.23
2022-11-29T12:44:44.251Z,39.37
2022-11-29T12:47:35.741Z,40.10
2022-11-29T12:50:31.892Z,42.70
2022-11-29T12:53:27.106Z,41.10
2022-11-29T12:56:13.558Z,40.83
2022-11-29T12:59:00.034Z,41.07
2022-11-29T13:01:48.262Z,40.67
2022-11-29T13:04:26.514Z,41.43
2022-11-29T13:07:04.941Z,42.97
2022-11-29T13:10:20.708Z,40.83
2022-11-29T13:12:54.303Z,40.27
2022-11-29T13:15:26.132Z,42.00
2022-11-29T13:18:06.050Z,41.40
2022-11-29T13:20:42.853Z,42.10
2022-11-29T13:23:39.163Z,41.00
2022-11-29T13:26:14.855Z,40.60
2022-11-29T13:28:46.322Z,41.83
2022-11-29T13:31:20.617Z,41.90
2022-11-29T13:33:59.717Z,41.93
2022-11-29T13:36:46.525Z,43.80
2022-11-29T13:39:37.746Z,41.90
2022-11-29T13:42:18.512Z,41.00
2022-11-29T13:45:00.009Z,42.20
2022-11-29T13:47:28.478Z,40.70
2022-11-29T13:50:02.673Z,40.63
2022-11-29T13:52:49.793Z,42.47
2022-11-29T13:55:29.212Z,41.37
2022-11-29T13:58:21.980Z,40.73
2022-11-29T14:00:52.568Z,40.53
2022-11-29T14:03:30.517Z,41.13
2022-11-29T14:06:14.879Z,41.70
2022-11-29T14:09:22.734Z,40.47
2022-11-29T14:12:01.266Z,40.83
2022-11-29T14:14:36.347Z,42.60
2022-11-29T14:17:07.417Z,41.90
2022-11-29T14:19:38.076Z,42.60
2022-11-29T14:22:31.974Z,41.13
2022-11-29T14:25:49.640Z,41.07
2022-11-29T14:28:33.613Z,42.43
2022-11-29T14:31:03.438Z,41.67
2022-11-29T14:34:04.363Z,41.93
2022-11-29T14:36:55.032Z,42.47
2022-11-29T14:39:39.440Z,42.20
2022-11-29T14:42:18.483Z,40.80
2022-11-29T14:44:58.247Z,43.27
2022-11-29T14:47:32.110Z,41.13
2022-11-29T14:50:06.520Z,41.47
2022-11-29T14:52:39.781Z,42.00
2022-11-29T14:55:33.496Z,42.17
2022-11-29T14:58:22.863Z,42.87
2022-11-29T15:01:09.527Z,41.90
2022-11-29T15:03:50.501Z,42.90
2022-11-29T15:06:28.093Z,41.93
2022-11-29T15:09:04.577Z,43.63
2022-11-29T15:11:51.038Z,44.07
2022-11-29T15:14:37.616Z,43.07
2022-11-29T15:17:31.534Z,45.07
2022-11-29T15:20:58.964Z,42.10
2022-11-29T15:23:27.250Z,44.57
2022-11-29T15:26:01.877Z,44.43
2022-11-29T15:28:31.544Z,45.17
2022-11-29T15:31:07.280Z,45.10
2022-11-29T15:33:40.556Z,44.87
2022-11-29T15:36:15.770Z,47.87
2022-11-29T15:38:46.416Z,50.27
2022-11-29T15:41:23.380Z,45.93
2022-11-29T15:43:57.780Z,44.07
2022-11-29T15:46:29.513Z,44.00
2022-11-29T15:49:17.886Z,43.50
2022-11-29T15:51:49.550Z,44.33
2022-11-29T15:54:28.517Z,45.43
2022-11-29T15:57:01.837Z,45.77
2022-11-29T15:59:41.883Z,45.80
2022-11-29T16:02:20.081Z,44.63
2022-11-29T16:04:53.415Z,43.97
2022-11-29T16:07:25.724Z,45.27
2022-11-29T16:09:59.440Z,43.10
2022-11-29T16:12:28.257Z,44.23
2022-11-29T16:15:00.708Z,43.87
2022-11-29T16:17:31.793Z,45.43
2022-11-29T16:20:24.229Z,43.93
2022-11-29T16:23:12.514Z,44.73
2022-11-29T16:25:59.583Z,44.43
2022-11-29T16:28:33.962Z,44.37
2022-11-29T16:31:04.788Z,44.30
2022-11-29T16:33:33.608Z,45.67
2022-11-29T16:36:11.875Z,46.10
2022-11-29T16:38:47.548Z,44.43
2022-11-29T16:41:32.211Z,46.97
2022-11-29T16:44:03.300Z,45.13
2022-11-29T16:46:37.131Z,44.53
2022-11-29T16:49:36.368Z,44.40
2022-11-29T16:52:24.849Z,46.27
2022-11-29T16:54:53.412Z,44.37
2022-11-29T16:57:22.265Z,45.07
2022-11-29T16:59:51.177Z,45.40
2022-11-29T17:02:21.285Z,45.47
2022-11-29T17:04:51.355Z,45.07
2022-11-29T17:07:30.594Z,45.33
2022-11-29T17:10:00.249Z,43.40
2022-11-29T17:12:28.621Z,43.73
2022-11-29T17:14:57.026Z,44.73
2022-11-29T17:17:26.776Z,45.93
2022-11-29T17:19:55.136Z,44.37
2022-11-29T17:22:23.408Z,45.40
2022-11-29T17:24:52.004Z,45.47
2022-11-29T17:27:20.393Z,46.30
2022-11-29T17:29:48.701Z,46.93
2022-11-29T17:32:16.920Z,47.00
2022-11-29T17:34:46.604Z,47.67
2022-11-29T17:37:15.021Z,44.37
2022-11-29T17:39:44.771Z,46.17
2022-11-29T17:42:13.546Z,47.90
2022-11-29T17:44:41.808Z,47.40
2022-11-29T17:47:10.105Z,45.43
2022-11-29T17:49:38.402Z,46.80
2022-11-29T17:52:08.410Z,47.40
2022-11-29T17:54:36.732Z,45.33
2022-11-29T17:57:05.091Z,46.20
2022-11-29T17:59:33.305Z,45.57
2022-11-29T18:02:02.128Z,46.07
2022-11-29T18:04:30.550Z,47.27
2022-11-29T18:06:58.848Z,45.83
2022-11-29T18:09:28.511Z,46.47
2022-11-29T18:11:56.907Z,45.47
2022-11-29T18:14:28.120Z,46.00
2022-11-29T18:16:56.591Z,45.57
2022-11-29T18:19:25.292Z,47.63
2022-11-29T18:21:53.748Z,47.47
2022-11-29T18:24:22.050Z,44.77
2022-11-29T18:26:51.804Z,47.63
2022-11-29T18:29:20.511Z,47.07
2022-11-29T18:31:48.893Z,46.33
2022-11-29T18:34:17.232Z,44.63
2022-11-29T18:36:47.160Z,45.77
2022-11-29T18:39:18.742Z,46.63
2022-11-29T18:41:49.117Z,47.97
2022-11-29T18:44:21.960Z,46.50
2022-11-29T18:46:50.707Z,47.20
2022-11-29T18:49:19.445Z,46.63
2022-11-29T18:51:49.562Z,46.33
2022-11-29T18:54:19.600Z,46.80
2022-11-29T18:56:51.144Z,48.53
2022-11-29T18:59:22.866Z,46.90
2022-11-29T19:01:51.372Z,47.13
2022-11-29T19:04:21.677Z,49.13
2022-11-29T19:06:50.557Z,47.13
2022-11-29T19:09:22.021Z,45.63
2022-11-29T19:11:50.640Z,46.90
2022-11-29T19:14:21.138Z,47.40
2022-11-29T19:16:50.489Z,48.80
2022-11-29T19:19:19.684Z,46.10
2022-11-29T19:21:49.001Z,47.07
2022-11-29T19:24:19.188Z,47.67
2022-11-29T19:26:50.246Z,46.30
2022-11-29T19:29:20.291Z,49.07
2022-11-29T19:31:50.227Z,48.90
2022-11-29T19:34:18.581Z,48.53
2022-11-29T19:36:46.962Z,50.90
2022-11-29T19:39:18.132Z,47.33
2022-11-29T19:41:48.428Z,49.13
2022-11-29T19:44:16.845Z,48.00
2022-11-29T19:46:48.680Z,46.30
2022-11-29T19:49:17.646Z,47.80
2022-11-29T19:51:45.980Z,47.63
2022-11-29T19:54:14.283Z,47.67
2022-11-29T19:56:42.633Z,47.57
2022-11-29T19:59:11.084Z,46.13
2022-11-29T20:01:41.890Z,46.70
2022-11-29T20:04:16.444Z,48.13
2022-11-29T20:06:47.491Z,46.37
2022-11-29T20:09:16.778Z,46.77
2022-11-29T20:11:45.378Z,48.70
2022-11-29T20:14:14.654Z,46.80
2022-11-29T20:16:43.587Z,46.43
2022-11-29T20:19:16.248Z,48.37
2022-11-29T20:21:48.648Z,48.00
2022-11-29T20:24:19.301Z,48.00
2022-11-29T20:26:50.231Z,47.97
2022-11-29T20:29:19.235Z,48.23
2022-11-29T20:31:50.723Z,48.40
2022-11-29T20:34:21.995Z,47.57
2022-11-29T20:37:30.193Z,48.57
2022-11-29T20:40:03.429Z,48.50
2022-11-29T20:42:59.253Z,47.47
2022-11-29T20:45:28.592Z,48.13
2022-11-29T20:48:04.656Z,49.90
2022-11-29T20:50:35.280Z,49.00
2022-11-29T20:53:25.093Z,46.43
2022-11-29T20:55:53.503Z,48.70
2022-11-29T20:58:21.822Z,48.23
2022-11-29T21:00:50.253Z,48.87
2022-11-29T21:03:20.640Z,48.03
2022-11-29T21:05:51.014Z,47.13
2022-11-29T21:08:22.091Z,50.10
2022-11-29T21:10:52.423Z,49.93
2022-11-29T21:13:23.514Z,47.63
2022-11-29T21:15:52.880Z,47.00
2022-11-29T21:18:25.284Z,47.33
2022-11-29T21:21:08.745Z,47.53
2022-11-29T21:23:52.584Z,47.53
2022-11-29T21:26:28.648Z,49.70
2022-11-29T21:29:13.475Z,45.03
2022-11-29T21:31:42.645Z,46.87
2022-11-29T21:34:11.427Z,47.70
2022-11-29T21:36:42.227Z,48.30
2022-11-29T21:39:16.070Z,47.70
2022-11-29T21:41:44.584Z,46.27
2022-11-29T21:44:12.961Z,47.57
2022-11-29T21:46:41.333Z,48.77
2022-11-29T21:49:10.716Z,48.93
2022-11-29T21:51:40.402Z,48.13
2022-11-29T21:54:08.732Z,49.00
2022-11-29T21:56:37.166Z,48.30
2022-11-29T21:59:05.829Z,46.83
2022-11-29T22:01:34.624Z,48.53
2022-11-29T22:04:04.078Z,46.60
2022-11-29T22:06:32.537Z,46.37
2022-11-29T22:09:02.471Z,49.00
2022-11-29T22:11:35.365Z,47.43
2022-11-29T22:14:15.933Z,45.17
2022-11-29T22:16:47.811Z,47.93
2022-11-29T22:19:18.186Z,50.00
2022-11-29T22:21:48.996Z,47.47
2022-11-29T22:24:22.359Z,47.23
2022-11-29T22:26:52.294Z,48.10
2022-11-29T22:29:21.640Z,46.43
2022-11-29T22:31:52.836Z,46.37
2022-11-29T22:34:22.089Z,44.77
2022-11-29T22:36:50.442Z,48.03
2022-11-29T22:39:20.301Z,48.73
2022-11-29T22:41:53.905Z,47.17
2022-11-29T22:44:22.813Z,47.50
2022-11-29T22:46:51.686Z,46.00
2022-11-29T22:49:20.428Z,46.30
2022-11-29T22:51:49.079Z,46.40
2022-11-29T22:54:17.882Z,49.23
2022-11-29T22:56:48.144Z,46.00
2022-11-29T22:59:16.608Z,43.60
2022-11-29T23:01:45.801Z,45.03
2022-11-29T23:04:15.703Z,45.27
2022-11-29T23:06:46.273Z,43.77
2022-11-29T23:09:19.696Z,45.17
2022-11-29T23:11:52.950Z,45.77
2022-11-29T23:14:22.379Z,45.93
2022-11-29T23:16:51.075Z,46.03
2022-11-29T23:19:19.879Z,46.20
2022-11-29T23:21:48.362Z,45.23
2022-11-29T23:24:17.211Z,45.77
2022-11-29T23:26:48.360Z,46.03
2022-11-29T23:29:19.770Z,44.50
2022-11-29T23:31:50.196Z,44.10
2022-11-29T23:34:18.935Z,46.17
2022-11-29T23:36:52.664Z,44.73
2022-11-29T23:39:21.638Z,43.50
2022-11-29T23:41:51.471Z,46.23
2022-11-29T23:44:19.842Z,45.30
2022-11-29T23:46:48.232Z,46.20
2022-11-29T23:49:16.657Z,44.17
2022-11-29T23:51:45.141Z,45.43
2022-11-29T23:54:13.539Z,43.80
2022-11-29T23:56:41.918Z,43.47
2022-11-29T23:59:11.505Z,45.30
